sensor_id;sensor_type;location;lat;lon;timestamp;temperature;humidity
47382;DHT22;33128;51.580;5.170;2023-02-28T00:01:12;2.80;99.90
47382;DHT22;33128;51.580;5.170;2023-02-28T00:03:38;2.80;99.90
47382;DHT22;33128;51.580;5.170;2023-02-28T00:06:07;3.00;99.90
47382;DHT22;33128;51.580;5.170;2023-02-28T00:08:35;3.20;99.90
47382;DHT22;33128;51.580;5.170;2023-02-28T00:11:05;3.00;99.90
47382;DHT22;33128;51.580;5.170;2023-02-28T00:13:32;2.90;99.90
47382;DHT22;33128;51.580;5.170;2023-02-28T00:16:07;3.00;99.90
47382;DHT22;33128;51.580;5.170;2023-02-28T00:18:34;3.20;99.90
47382;DHT22;33128;51.580;5.170;2023-02-28T00:21:00;2.70;99.90
47382;DHT22;33128;51.580;5.170;2023-02-28T00:23:26;2.70;99.90
47382;DHT22;33128;51.580;5.170;2023-02-28T00:25:53;2.60;99.90
47382;DHT22;33128;51.580;5.170;2023-02-28T00:28:19;2.60;99.90
47382;DHT22;33128;51.580;5.170;2023-02-28T00:30:44;2.70;99.90
47382;DHT22;33128;51.580;5.170;2023-02-28T00:33:10;2.60;99.90
47382;DHT22;33128;51.580;5.170;2023-02-28T00:35:36;2.30;99.90
47382;DHT22;33128;51.580;5.170;2023-02-28T00:38:01;2.40;99.90
47382;DHT22;33128;51.580;5.170;2023-02-28T00:40:28;2.40;99.90
47382;DHT22;33128;51.580;5.170;2023-02-28T00:42:53;2.60;99.90
47382;DHT22;33128;51.580;5.170;2023-02-28T00:45:19;2.70;99.90
47382;DHT22;33128;51.580;5.170;2023-02-28T00:47:45;2.80;99.90
47382;DHT22;33128;51.580;5.170;2023-02-28T00:50:12;2.60;99.90
47382;DHT22;33128;51.580;5.170;2023-02-28T00:52:37;2.60;99.90
47382;DHT22;33128;51.580;5.170;2023-02-28T00:55:04;2.30;99.90
47382;DHT22;33128;51.580;5.170;2023-02-28T00:57:29;2.10;99.90
47382;DHT22;33128;51.580;5.170;2023-02-28T00:59:58;1.70;99.90
47382;DHT22;33128;51.580;5.170;2023-02-28T01:02:23;1.80;99.90
47382;DHT22;33128;51.580;5.170;2023-02-28T01:04:49;1.90;99.90
47382;DHT22;33128;51.580;5.170;2023-02-28T01:07:15;1.90;99.90
47382;DHT22;33128;51.580;5.170;2023-02-28T01:09:41;1.60;99.90
47382;DHT22;33128;51.580;5.170;2023-02-28T01:12:08;1.50;99.90
47382;DHT22;33128;51.580;5.170;2023-02-28T01:14:34;1.60;99.90
47382;DHT22;33128;51.580;5.170;2023-02-28T01:17:00;1.70;99.90
47382;DHT22;33128;51.580;5.170;2023-02-28T01:19:25;2.20;99.90
47382;DHT22;33128;51.580;5.170;2023-02-28T01:21:51;1.90;99.90
47382;DHT22;33128;51.580;5.170;2023-02-28T01:24:17;2.20;99.90
47382;DHT22;33128;51.580;5.170;2023-02-28T01:26:42;1.80;99.90
47382;DHT22;33128;51.580;5.170;2023-02-28T01:29:08;1.90;99.90
47382;DHT22;33128;51.580;5.170;2023-02-28T01:31:33;1.30;99.90
47382;DHT22;33128;51.580;5.170;2023-02-28T01:33:59;1.70;99.90
47382;DHT22;33128;51.580;5.170;2023-02-28T01:36:25;2.00;99.90
47382;DHT22;33128;51.580;5.170;2023-02-28T01:38:51;2.40;99.90
47382;DHT22;33128;51.580;5.170;2023-02-28T01:41:26;2.50;99.90
47382;DHT22;33128;51.580;5.170;2023-02-28T01:43:53;2.50;99.90
47382;DHT22;33128;51.580;5.170;2023-02-28T01:46:19;2.20;99.90
47382;DHT22;33128;51.580;5.170;2023-02-28T01:48:49;2.00;99.90
47382;DHT22;33128;51.580;5.170;2023-02-28T01:51:22;1.80;99.90
47382;DHT22;33128;51.580;5.170;2023-02-28T01:53:53;1.80;99.90
47382;DHT22;33128;51.580;5.170;2023-02-28T01:56:27;1.90;99.90
47382;DHT22;33128;51.580;5.170;2023-02-28T01:58:55;1.90;99.90
47382;DHT22;33128;51.580;5.170;2023-02-28T02:01:22;2.10;99.90
47382;DHT22;33128;51.580;5.170;2023-02-28T02:03:55;2.00;99.90
47382;DHT22;33128;51.580;5.170;2023-02-28T02:06:29;2.00;99.90
47382;DHT22;33128;51.580;5.170;2023-02-28T02:08:55;2.10;99.90
47382;DHT22;33128;51.580;5.170;2023-02-28T02:11:23;2.00;99.90
47382;DHT22;33128;51.580;5.170;2023-02-28T02:22:37;2.40;99.90
47382;DHT22;33128;51.580;5.170;2023-02-28T02:25:28;2.40;99.90
47382;DHT22;33128;51.580;5.170;2023-02-28T02:37:17;2.00;99.90
47382;DHT22;33128;51.580;5.170;2023-02-28T02:45:31;2.40;99.90
47382;DHT22;33128;51.580;5.170;2023-02-28T02:48:04;2.40;99.90
47382;DHT22;33128;51.580;5.170;2023-02-28T02:50:43;2.10;99.90
47382;DHT22;33128;51.580;5.170;2023-02-28T02:53:12;2.00;99.90
47382;DHT22;33128;51.580;5.170;2023-02-28T02:55:42;2.10;99.90
47382;DHT22;33128;51.580;5.170;2023-02-28T02:58:14;2.10;99.90
47382;DHT22;33128;51.580;5.170;2023-02-28T03:00:52;2.50;99.90
47382;DHT22;33128;51.580;5.170;2023-02-28T03:03:19;2.30;99.90
47382;DHT22;33128;51.580;5.170;2023-02-28T03:05:58;2.10;99.90
47382;DHT22;33128;51.580;5.170;2023-02-28T03:08:25;2.30;99.90
47382;DHT22;33128;51.580;5.170;2023-02-28T03:10:56;2.10;99.90
47382;DHT22;33128;51.580;5.170;2023-02-28T03:16:42;2.30;99.90
47382;DHT22;33128;51.580;5.170;2023-02-28T03:22:19;2.30;99.90
47382;DHT22;33128;51.580;5.170;2023-02-28T03:25:20;2.30;99.90
47382;DHT22;33128;51.580;5.170;2023-02-28T03:30:29;2.30;99.90
47382;DHT22;33128;51.580;5.170;2023-02-28T03:33:05;2.30;99.90
47382;DHT22;33128;51.580;5.170;2023-02-28T03:35:36;2.50;99.90
47382;DHT22;33128;51.580;5.170;2023-02-28T03:38:22;2.70;99.90
47382;DHT22;33128;51.580;5.170;2023-02-28T03:41:05;2.80;99.90
47382;DHT22;33128;51.580;5.170;2023-02-28T03:43:36;2.80;99.90
47382;DHT22;33128;51.580;5.170;2023-02-28T03:46:07;2.60;99.90
47382;DHT22;33128;51.580;5.170;2023-02-28T03:51:13;2.80;99.90
47382;DHT22;33128;51.580;5.170;2023-02-28T03:53:44;2.60;99.90
47382;DHT22;33128;51.580;5.170;2023-02-28T03:56:20;2.70;99.90
47382;DHT22;33128;51.580;5.170;2023-02-28T03:59:02;2.80;99.90
47382;DHT22;33128;51.580;5.170;2023-02-28T04:01:42;2.70;99.90
47382;DHT22;33128;51.580;5.170;2023-02-28T04:04:09;2.60;99.90
47382;DHT22;33128;51.580;5.170;2023-02-28T04:06:35;2.50;99.90
47382;DHT22;33128;51.580;5.170;2023-02-28T04:09:02;2.60;99.90
47382;DHT22;33128;51.580;5.170;2023-02-28T04:11:41;2.80;99.90
47382;DHT22;33128;51.580;5.170;2023-02-28T04:14:08;2.70;99.90
47382;DHT22;33128;51.580;5.170;2023-02-28T04:16:36;2.80;99.90
47382;DHT22;33128;51.580;5.170;2023-02-28T04:19:03;2.70;99.90
47382;DHT22;33128;51.580;5.170;2023-02-28T04:21:35;2.70;99.90
47382;DHT22;33128;51.580;5.170;2023-02-28T04:24:01;2.80;99.90
47382;DHT22;33128;51.580;5.170;2023-02-28T04:26:34;2.70;99.90
47382;DHT22;33128;51.580;5.170;2023-02-28T04:29:01;2.80;99.90
47382;DHT22;33128;51.580;5.170;2023-02-28T04:31:26;2.80;99.90
47382;DHT22;33128;51.580;5.170;2023-02-28T04:33:52;2.90;99.90
47382;DHT22;33128;51.580;5.170;2023-02-28T04:36:18;2.80;99.90
47382;DHT22;33128;51.580;5.170;2023-02-28T04:38:44;2.90;99.90
47382;DHT22;33128;51.580;5.170;2023-02-28T04:41:11;2.90;99.90
47382;DHT22;33128;51.580;5.170;2023-02-28T04:43:36;2.70;99.90
47382;DHT22;33128;51.580;5.170;2023-02-28T04:46:03;2.80;99.90
47382;DHT22;33128;51.580;5.170;2023-02-28T04:48:32;2.90;99.90
47382;DHT22;33128;51.580;5.170;2023-02-28T04:51:02;3.00;99.90
47382;DHT22;33128;51.580;5.170;2023-02-28T04:53:29;3.00;99.90
47382;DHT22;33128;51.580;5.170;2023-02-28T04:55:55;3.00;99.90
47382;DHT22;33128;51.580;5.170;2023-02-28T04:58:21;3.10;99.90
47382;DHT22;33128;51.580;5.170;2023-02-28T05:00:51;3.60;99.90
47382;DHT22;33128;51.580;5.170;2023-02-28T05:03:16;6.30;99.90
47382;DHT22;33128;51.580;5.170;2023-02-28T05:05:42;7.60;99.90
47382;DHT22;33128;51.580;5.170;2023-02-28T05:08:08;8.50;99.90
47382;DHT22;33128;51.580;5.170;2023-02-28T05:10:35;9.00;99.90
47382;DHT22;33128;51.580;5.170;2023-02-28T05:13:01;9.20;99.90
47382;DHT22;33128;51.580;5.170;2023-02-28T05:15:27;9.40;99.90
47382;DHT22;33128;51.580;5.170;2023-02-28T05:17:53;9.70;99.90
47382;DHT22;33128;51.580;5.170;2023-02-28T05:20:18;9.60;99.90
47382;DHT22;33128;51.580;5.170;2023-02-28T05:22:44;9.50;99.90
47382;DHT22;33128;51.580;5.170;2023-02-28T05:25:18;9.60;99.90
47382;DHT22;33128;51.580;5.170;2023-02-28T05:27:44;9.80;99.90
47382;DHT22;33128;51.580;5.170;2023-02-28T05:30:10;9.80;99.90
47382;DHT22;33128;51.580;5.170;2023-02-28T05:32:41;9.80;99.90
47382;DHT22;33128;51.580;5.170;2023-02-28T05:35:15;9.80;99.90
47382;DHT22;33128;51.580;5.170;2023-02-28T05:37:41;9.90;99.90
47382;DHT22;33128;51.580;5.170;2023-02-28T05:40:07;9.90;99.90
47382;DHT22;33128;51.580;5.170;2023-02-28T05:42:35;10.00;99.90
47382;DHT22;33128;51.580;5.170;2023-02-28T05:45:01;10.00;99.90
47382;DHT22;33128;51.580;5.170;2023-02-28T05:47:27;10.00;99.90
47382;DHT22;33128;51.580;5.170;2023-02-28T05:49:52;10.00;99.90
47382;DHT22;33128;51.580;5.170;2023-02-28T05:52:18;10.00;99.90
47382;DHT22;33128;51.580;5.170;2023-02-28T05:54:43;10.00;99.90
47382;DHT22;33128;51.580;5.170;2023-02-28T05:57:09;10.00;99.90
47382;DHT22;33128;51.580;5.170;2023-02-28T05:59:34;10.10;99.90
47382;DHT22;33128;51.580;5.170;2023-02-28T06:02:05;10.20;99.90
47382;DHT22;33128;51.580;5.170;2023-02-28T06:04:31;10.20;99.90
47382;DHT22;33128;51.580;5.170;2023-02-28T06:06:56;10.20;99.90
47382;DHT22;33128;51.580;5.170;2023-02-28T06:09:23;10.20;99.90
47382;DHT22;33128;51.580;5.170;2023-02-28T06:11:48;10.20;99.90
47382;DHT22;33128;51.580;5.170;2023-02-28T06:14:18;10.20;99.90
47382;DHT22;33128;51.580;5.170;2023-02-28T06:16:44;10.30;99.90
47382;DHT22;33128;51.580;5.170;2023-02-28T06:19:10;10.40;99.90
47382;DHT22;33128;51.580;5.170;2023-02-28T06:21:36;10.50;99.90
47382;DHT22;33128;51.580;5.170;2023-02-28T06:24:02;10.50;99.90
47382;DHT22;33128;51.580;5.170;2023-02-28T06:26:28;10.40;99.90
47382;DHT22;33128;51.580;5.170;2023-02-28T06:28:54;10.40;99.90
47382;DHT22;33128;51.580;5.170;2023-02-28T06:31:20;10.10;99.90
47382;DHT22;33128;51.580;5.170;2023-02-28T06:33:47;9.00;99.90
47382;DHT22;33128;51.580;5.170;2023-02-28T06:36:14;7.00;99.90
47382;DHT22;33128;51.580;5.170;2023-02-28T06:38:42;6.00;99.90
47382;DHT22;33128;51.580;5.170;2023-02-28T06:41:08;5.50;99.90
47382;DHT22;33128;51.580;5.170;2023-02-28T06:43:38;6.50;99.90
47382;DHT22;33128;51.580;5.170;2023-02-28T06:46:06;6.00;99.90
47382;DHT22;33128;51.580;5.170;2023-02-28T06:48:32;6.10;99.90
47382;DHT22;33128;51.580;5.170;2023-02-28T06:51:02;6.80;99.90
47382;DHT22;33128;51.580;5.170;2023-02-28T06:53:28;5.60;99.90
47382;DHT22;33128;51.580;5.170;2023-02-28T06:55:54;6.00;99.90
47382;DHT22;33128;51.580;5.170;2023-02-28T06:58:19;5.40;99.90
47382;DHT22;33128;51.580;5.170;2023-02-28T07:00:50;6.90;99.90
47382;DHT22;33128;51.580;5.170;2023-02-28T07:03:16;6.00;99.90
47382;DHT22;33128;51.580;5.170;2023-02-28T07:05:42;5.40;99.90
47382;DHT22;33128;51.580;5.170;2023-02-28T07:08:08;5.40;99.90
47382;DHT22;33128;51.580;5.170;2023-02-28T07:10:34;5.80;99.90
47382;DHT22;33128;51.580;5.170;2023-02-28T07:13:00;5.40;99.90
47382;DHT22;33128;51.580;5.170;2023-02-28T07:15:26;5.50;99.90
47382;DHT22;33128;51.580;5.170;2023-02-28T07:17:51;5.70;99.90
47382;DHT22;33128;51.580;5.170;2023-02-28T07:20:17;5.20;99.90
47382;DHT22;33128;51.580;5.170;2023-02-28T07:22:43;5.50;99.90
47382;DHT22;33128;51.580;5.170;2023-02-28T07:25:09;5.60;99.90
47382;DHT22;33128;51.580;5.170;2023-02-28T07:27:34;5.40;99.90
47382;DHT22;33128;51.580;5.170;2023-02-28T07:30:00;5.20;99.90
47382;DHT22;33128;51.580;5.170;2023-02-28T07:32:27;5.90;99.90
47382;DHT22;33128;51.580;5.170;2023-02-28T07:34:53;5.90;99.90
47382;DHT22;33128;51.580;5.170;2023-02-28T07:37:19;5.50;99.90
47382;DHT22;33128;51.580;5.170;2023-02-28T07:39:45;5.70;99.90
47382;DHT22;33128;51.580;5.170;2023-02-28T07:42:10;5.30;99.90
47382;DHT22;33128;51.580;5.170;2023-02-28T07:44:38;5.30;99.90
47382;DHT22;33128;51.580;5.170;2023-02-28T07:47:07;5.60;99.90
47382;DHT22;33128;51.580;5.170;2023-02-28T07:49:34;5.50;99.90
47382;DHT22;33128;51.580;5.170;2023-02-28T07:51:59;6.00;99.90
47382;DHT22;33128;51.580;5.170;2023-02-28T07:54:25;6.20;99.90
47382;DHT22;33128;51.580;5.170;2023-02-28T07:56:51;6.20;99.90
47382;DHT22;33128;51.580;5.170;2023-02-28T07:59:16;6.40;99.90
47382;DHT22;33128;51.580;5.170;2023-02-28T08:01:42;6.90;99.90
47382;DHT22;33128;51.580;5.170;2023-02-28T08:04:09;7.20;99.90
47382;DHT22;33128;51.580;5.170;2023-02-28T08:06:35;7.50;99.90
47382;DHT22;33128;51.580;5.170;2023-02-28T08:09:01;7.30;99.90
47382;DHT22;33128;51.580;5.170;2023-02-28T08:11:26;7.50;99.90
47382;DHT22;33128;51.580;5.170;2023-02-28T08:13:55;7.20;99.90
47382;DHT22;33128;51.580;5.170;2023-02-28T08:16:20;7.50;99.90
47382;DHT22;33128;51.580;5.170;2023-02-28T08:18:51;7.70;99.90
47382;DHT22;33128;51.580;5.170;2023-02-28T08:21:18;7.80;99.90
47382;DHT22;33128;51.580;5.170;2023-02-28T08:23:47;7.80;99.90
47382;DHT22;33128;51.580;5.170;2023-02-28T08:26:13;7.80;99.90
47382;DHT22;33128;51.580;5.170;2023-02-28T08:28:38;8.20;99.90
47382;DHT22;33128;51.580;5.170;2023-02-28T08:31:09;8.50;99.90
47382;DHT22;33128;51.580;5.170;2023-02-28T08:33:35;8.60;99.90
47382;DHT22;33128;51.580;5.170;2023-02-28T08:36:01;8.70;99.90
47382;DHT22;33128;51.580;5.170;2023-02-28T08:38:27;8.60;99.90
47382;DHT22;33128;51.580;5.170;2023-02-28T08:41:00;9.10;99.90
47382;DHT22;33128;51.580;5.170;2023-02-28T08:43:27;9.10;99.90
47382;DHT22;33128;51.580;5.170;2023-02-28T08:45:54;8.90;99.90
47382;DHT22;33128;51.580;5.170;2023-02-28T08:48:22;8.60;99.90
47382;DHT22;33128;51.580;5.170;2023-02-28T08:51:02;8.70;99.90
47382;DHT22;33128;51.580;5.170;2023-02-28T08:53:28;8.50;99.90
47382;DHT22;33128;51.580;5.170;2023-02-28T08:56:06;8.20;99.50
47382;DHT22;33128;51.580;5.170;2023-02-28T08:58:32;8.30;99.90
47382;DHT22;33128;51.580;5.170;2023-02-28T09:00:58;8.70;99.90
47382;DHT22;33128;51.580;5.170;2023-02-28T09:03:24;9.20;99.90
47382;DHT22;33128;51.580;5.170;2023-02-28T09:05:58;9.40;99.90
47382;DHT22;33128;51.580;5.170;2023-02-28T09:08:25;9.20;99.90
47382;DHT22;33128;51.580;5.170;2023-02-28T09:10:51;9.40;99.90
47382;DHT22;33128;51.580;5.170;2023-02-28T09:13:18;9.60;99.90
47382;DHT22;33128;51.580;5.170;2023-02-28T09:15:44;9.30;99.90
47382;DHT22;33128;51.580;5.170;2023-02-28T09:18:10;9.10;99.90
47382;DHT22;33128;51.580;5.170;2023-02-28T09:20:40;9.20;99.90
47382;DHT22;33128;51.580;5.170;2023-02-28T09:23:07;9.20;99.90
47382;DHT22;33128;51.580;5.170;2023-02-28T09:25:33;9.30;99.90
47382;DHT22;33128;51.580;5.170;2023-02-28T09:27:59;9.40;99.90
47382;DHT22;33128;51.580;5.170;2023-02-28T09:30:24;9.30;99.50
47382;DHT22;33128;51.580;5.170;2023-02-28T09:32:53;9.30;99.90
47382;DHT22;33128;51.580;5.170;2023-02-28T09:35:20;9.40;99.90
47382;DHT22;33128;51.580;5.170;2023-02-28T09:37:47;9.50;99.90
47382;DHT22;33128;51.580;5.170;2023-02-28T09:40:14;9.40;99.90
47382;DHT22;33128;51.580;5.170;2023-02-28T09:42:43;9.70;99.90
47382;DHT22;33128;51.580;5.170;2023-02-28T09:47:46;9.40;99.90
47382;DHT22;33128;51.580;5.170;2023-02-28T09:52:53;9.30;99.90
47382;DHT22;33128;51.580;5.170;2023-02-28T09:57:45;9.60;99.90
47382;DHT22;33128;51.580;5.170;2023-02-28T10:00:39;9.30;99.60
47382;DHT22;33128;51.580;5.170;2023-02-28T10:03:28;9.40;99.90
47382;DHT22;33128;51.580;5.170;2023-02-28T10:05:58;9.70;99.90
47382;DHT22;33128;51.580;5.170;2023-02-28T10:08:32;9.60;98.60
47382;DHT22;33128;51.580;5.170;2023-02-28T10:11:09;9.70;99.90
47382;DHT22;33128;51.580;5.170;2023-02-28T10:17:03;9.90;99.90
47382;DHT22;33128;51.580;5.170;2023-02-28T10:22:36;9.80;99.90
47382;DHT22;33128;51.580;5.170;2023-02-28T10:25:19;10.00;99.90
47382;DHT22;33128;51.580;5.170;2023-02-28T10:27:45;10.00;99.30
47382;DHT22;33128;51.580;5.170;2023-02-28T10:30:11;10.30;99.90
47382;DHT22;33128;51.580;5.170;2023-02-28T10:32:40;10.00;98.50
47382;DHT22;33128;51.580;5.170;2023-02-28T10:35:23;10.10;99.90
47382;DHT22;33128;51.580;5.170;2023-02-28T10:37:57;10.10;99.30
47382;DHT22;33128;51.580;5.170;2023-02-28T10:40:35;9.90;98.40
47382;DHT22;33128;51.580;5.170;2023-02-28T10:43:02;9.90;98.00
47382;DHT22;33128;51.580;5.170;2023-02-28T10:45:35;10.30;99.50
47382;DHT22;33128;51.580;5.170;2023-02-28T10:59:22;10.20;96.40
47382;DHT22;33128;51.580;5.170;2023-02-28T11:01:50;10.30;97.60
47382;DHT22;33128;51.580;5.170;2023-02-28T11:06:48;10.80;97.90
47382;DHT22;33128;51.580;5.170;2023-02-28T11:09:29;10.70;95.40
47382;DHT22;33128;51.580;5.170;2023-02-28T11:11:56;10.80;95.30
47382;DHT22;33128;51.580;5.170;2023-02-28T11:14:36;10.90;96.70
47382;DHT22;33128;51.580;5.170;2023-02-28T11:17:22;11.20;97.10
47382;DHT22;33128;51.580;5.170;2023-02-28T11:20:06;11.20;94.70
47382;DHT22;33128;51.580;5.170;2023-02-28T11:22:37;11.30;95.20
47382;DHT22;33128;51.580;5.170;2023-02-28T11:25:25;11.70;96.30
47382;DHT22;33128;51.580;5.170;2023-02-28T11:27:57;12.00;95.20
47382;DHT22;33128;51.580;5.170;2023-02-28T11:30:37;12.10;95.50
47382;DHT22;33128;51.580;5.170;2023-02-28T11:33:27;12.20;96.40
47382;DHT22;33128;51.580;5.170;2023-02-28T11:36:01;12.50;93.60
47382;DHT22;33128;51.580;5.170;2023-02-28T11:38:27;12.90;95.80
47382;DHT22;33128;51.580;5.170;2023-02-28T11:46:20;15.80;95.50
47382;DHT22;33128;51.580;5.170;2023-02-28T11:52:00;17.30;92.10
47382;DHT22;33128;51.580;5.170;2023-02-28T11:55:04;17.70;92.90
47382;DHT22;33128;51.580;5.170;2023-02-28T11:58:16;18.30;92.70
47382;DHT22;33128;51.580;5.170;2023-02-28T12:26:41;20.30;82.10
47382;DHT22;33128;51.580;5.170;2023-02-28T12:29:29;20.10;79.90
47382;DHT22;33128;51.580;5.170;2023-02-28T12:32:18;20.20;83.80
47382;DHT22;33128;51.580;5.170;2023-02-28T12:35:12;20.20;80.90
47382;DHT22;33128;51.580;5.170;2023-02-28T12:40:14;20.30;84.80
47382;DHT22;33128;51.580;5.170;2023-02-28T12:42:46;20.30;82.90
47382;DHT22;33128;51.580;5.170;2023-02-28T12:47:48;20.00;84.90
47382;DHT22;33128;51.580;5.170;2023-02-28T12:50:15;20.00;85.10
47382;DHT22;33128;51.580;5.170;2023-02-28T12:52:53;19.80;83.70
47382;DHT22;33128;51.580;5.170;2023-02-28T12:55:42;19.70;88.10
47382;DHT22;33128;51.580;5.170;2023-02-28T13:09:58;18.70;83.90
47382;DHT22;33128;51.580;5.170;2023-02-28T13:12:25;18.60;89.20
47382;DHT22;33128;51.580;5.170;2023-02-28T13:15:12;18.50;91.50
47382;DHT22;33128;51.580;5.170;2023-02-28T13:17:41;18.40;89.30
47382;DHT22;33128;51.580;5.170;2023-02-28T13:20:37;18.30;90.90
47382;DHT22;33128;51.580;5.170;2023-02-28T13:23:55;18.10;87.00
47382;DHT22;33128;51.580;5.170;2023-02-28T13:39:49;17.50;94.80
47382;DHT22;33128;51.580;5.170;2023-02-28T13:47:42;17.40;93.80
47382;DHT22;33128;51.580;5.170;2023-02-28T13:56:05;17.20;94.80
47382;DHT22;33128;51.580;5.170;2023-02-28T14:01:35;17.10;96.30
47382;DHT22;33128;51.580;5.170;2023-02-28T14:04:33;17.30;94.60
47382;DHT22;33128;51.580;5.170;2023-02-28T14:07:04;18.00;83.70
47382;DHT22;33128;51.580;5.170;2023-02-28T14:11:55;19.10;86.20
47382;DHT22;33128;51.580;5.170;2023-02-28T14:17:07;18.10;79.70
47382;DHT22;33128;51.580;5.170;2023-02-28T14:19:34;17.50;72.30
47382;DHT22;33128;51.580;5.170;2023-02-28T14:22:16;17.20;72.10
47382;DHT22;33128;51.580;5.170;2023-02-28T14:27:48;16.80;73.80
47382;DHT22;33128;51.580;5.170;2023-02-28T14:30:43;16.80;72.70
47382;DHT22;33128;51.580;5.170;2023-02-28T14:36:08;17.10;74.50
47382;DHT22;33128;51.580;5.170;2023-02-28T14:38:46;16.90;73.50
47382;DHT22;33128;51.580;5.170;2023-02-28T14:41:28;16.70;77.10
47382;DHT22;33128;51.580;5.170;2023-02-28T14:43:59;16.00;75.00
47382;DHT22;33128;51.580;5.170;2023-02-28T14:46:30;16.10;76.60
47382;DHT22;33128;51.580;5.170;2023-02-28T14:49:01;16.00;75.40
47382;DHT22;33128;51.580;5.170;2023-02-28T14:51:26;15.90;76.40
47382;DHT22;33128;51.580;5.170;2023-02-28T14:53:58;15.50;75.50
47382;DHT22;33128;51.580;5.170;2023-02-28T14:56:28;15.10;72.50
47382;DHT22;33128;51.580;5.170;2023-02-28T14:58:56;15.10;75.50
47382;DHT22;33128;51.580;5.170;2023-02-28T15:01:23;14.90;76.10
47382;DHT22;33128;51.580;5.170;2023-02-28T15:04:06;14.80;75.90
47382;DHT22;33128;51.580;5.170;2023-02-28T15:06:33;14.50;79.10
47382;DHT22;33128;51.580;5.170;2023-02-28T15:09:16;14.40;84.80
47382;DHT22;33128;51.580;5.170;2023-02-28T15:11:46;14.30;80.30
47382;DHT22;33128;51.580;5.170;2023-02-28T15:14:18;14.50;79.70
47382;DHT22;33128;51.580;5.170;2023-02-28T15:16:49;14.30;78.00
47382;DHT22;33128;51.580;5.170;2023-02-28T15:19:31;14.00;77.60
47382;DHT22;33128;51.580;5.170;2023-02-28T15:22:06;13.90;78.90
47382;DHT22;33128;51.580;5.170;2023-02-28T15:24:43;14.00;79.50
47382;DHT22;33128;51.580;5.170;2023-02-28T15:27:19;13.70;78.60
47382;DHT22;33128;51.580;5.170;2023-02-28T15:29:48;13.60;80.30
47382;DHT22;33128;51.580;5.170;2023-02-28T15:32:38;13.70;84.50
47382;DHT22;33128;51.580;5.170;2023-02-28T15:43:18;12.90;83.40
47382;DHT22;33128;51.580;5.170;2023-02-28T15:46:11;13.00;87.80
47382;DHT22;33128;51.580;5.170;2023-02-28T15:48:56;12.70;79.80
47382;DHT22;33128;51.580;5.170;2023-02-28T15:51:35;12.20;77.40
47382;DHT22;33128;51.580;5.170;2023-02-28T15:54:06;12.20;81.00
47382;DHT22;33128;51.580;5.170;2023-02-28T15:56:54;12.10;84.10
47382;DHT22;33128;51.580;5.170;2023-02-28T15:59:24;12.30;84.30
47382;DHT22;33128;51.580;5.170;2023-02-28T16:04:29;12.20;83.00
47382;DHT22;33128;51.580;5.170;2023-02-28T16:07:03;12.10;89.50
47382;DHT22;33128;51.580;5.170;2023-02-28T16:09:29;12.00;79.60
47382;DHT22;33128;51.580;5.170;2023-02-28T16:11:59;11.80;81.50
47382;DHT22;33128;51.580;5.170;2023-02-28T16:14:30;12.00;89.90
47382;DHT22;33128;51.580;5.170;2023-02-28T16:17:05;11.70;83.50
47382;DHT22;33128;51.580;5.170;2023-02-28T16:19:31;12.00;91.90
47382;DHT22;33128;51.580;5.170;2023-02-28T16:21:57;11.80;85.30
47382;DHT22;33128;51.580;5.170;2023-02-28T16:24:26;11.30;77.50
47382;DHT22;33128;51.580;5.170;2023-02-28T16:26:53;11.50;87.40
47382;DHT22;33128;51.580;5.170;2023-02-28T16:29:26;11.00;86.00
47382;DHT22;33128;51.580;5.170;2023-02-28T16:31:52;11.10;79.90
47382;DHT22;33128;51.580;5.170;2023-02-28T16:34:19;11.00;82.50
47382;DHT22;33128;51.580;5.170;2023-02-28T16:36:47;10.80;80.70
47382;DHT22;33128;51.580;5.170;2023-02-28T16:39:13;10.60;81.80
47382;DHT22;33128;51.580;5.170;2023-02-28T16:41:42;10.30;81.90
47382;DHT22;33128;51.580;5.170;2023-02-28T16:44:26;9.80;81.30
47382;DHT22;33128;51.580;5.170;2023-02-28T16:46:53;10.20;82.50
47382;DHT22;33128;51.580;5.170;2023-02-28T16:49:19;11.70;85.90
47382;DHT22;33128;51.580;5.170;2023-02-28T16:51:44;12.40;89.30
47382;DHT22;33128;51.580;5.170;2023-02-28T16:54:10;12.70;87.10
47382;DHT22;33128;51.580;5.170;2023-02-28T16:56:44;12.90;85.90
47382;DHT22;33128;51.580;5.170;2023-02-28T16:59:17;13.00;87.00
47382;DHT22;33128;51.580;5.170;2023-02-28T17:01:43;13.10;85.70
47382;DHT22;33128;51.580;5.170;2023-02-28T17:04:10;13.10;89.10
47382;DHT22;33128;51.580;5.170;2023-02-28T17:06:38;13.10;88.30
47382;DHT22;33128;51.580;5.170;2023-02-28T17:09:04;13.00;89.70
47382;DHT22;33128;51.580;5.170;2023-02-28T17:11:29;13.00;90.00
47382;DHT22;33128;51.580;5.170;2023-02-28T17:13:55;12.90;90.20
47382;DHT22;33128;51.580;5.170;2023-02-28T17:16:32;12.90;90.20
47382;DHT22;33128;51.580;5.170;2023-02-28T17:19:05;12.80;87.40
47382;DHT22;33128;51.580;5.170;2023-02-28T17:21:31;12.80;88.20
47382;DHT22;33128;51.580;5.170;2023-02-28T17:24:10;12.70;89.20
47382;DHT22;33128;51.580;5.170;2023-02-28T17:26:45;12.70;88.30
47382;DHT22;33128;51.580;5.170;2023-02-28T17:29:16;12.70;90.30
47382;DHT22;33128;51.580;5.170;2023-02-28T17:31:43;12.60;89.50
47382;DHT22;33128;51.580;5.170;2023-02-28T17:34:08;12.60;90.40
47382;DHT22;33128;51.580;5.170;2023-02-28T17:36:34;12.60;90.30
47382;DHT22;33128;51.580;5.170;2023-02-28T17:39:04;12.50;90.30
47382;DHT22;33128;51.580;5.170;2023-02-28T17:41:34;12.50;90.60
47382;DHT22;33128;51.580;5.170;2023-02-28T17:43:59;12.50;90.40
47382;DHT22;33128;51.580;5.170;2023-02-28T17:46:25;12.40;90.70
47382;DHT22;33128;51.580;5.170;2023-02-28T17:48:52;12.40;90.90
47382;DHT22;33128;51.580;5.170;2023-02-28T17:51:20;12.40;90.70
47382;DHT22;33128;51.580;5.170;2023-02-28T17:53:46;12.30;90.70
47382;DHT22;33128;51.580;5.170;2023-02-28T17:56:13;12.30;90.50
47382;DHT22;33128;51.580;5.170;2023-02-28T17:58:40;12.30;90.80
47382;DHT22;33128;51.580;5.170;2023-02-28T18:01:05;12.30;91.50
47382;DHT22;33128;51.580;5.170;2023-02-28T18:03:31;12.30;92.20
47382;DHT22;33128;51.580;5.170;2023-02-28T18:05:57;12.30;91.90
47382;DHT22;33128;51.580;5.170;2023-02-28T18:08:23;12.30;91.80
47382;DHT22;33128;51.580;5.170;2023-02-28T18:10:49;12.20;91.90
47382;DHT22;33128;51.580;5.170;2023-02-28T18:13:15;12.20;91.80
47382;DHT22;33128;51.580;5.170;2023-02-28T18:15:43;12.20;91.80
47382;DHT22;33128;51.580;5.170;2023-02-28T18:18:09;12.30;92.00
47382;DHT22;33128;51.580;5.170;2023-02-28T18:20:35;12.30;92.20
47382;DHT22;33128;51.580;5.170;2023-02-28T18:23:01;12.30;92.10
47382;DHT22;33128;51.580;5.170;2023-02-28T18:25:28;12.30;92.00
47382;DHT22;33128;51.580;5.170;2023-02-28T18:27:53;12.30;91.70
47382;DHT22;33128;51.580;5.170;2023-02-28T18:30:27;12.30;91.60
47382;DHT22;33128;51.580;5.170;2023-02-28T18:32:54;12.30;91.80
47382;DHT22;33128;51.580;5.170;2023-02-28T18:35:24;12.20;91.90
47382;DHT22;33128;51.580;5.170;2023-02-28T18:38:15;12.20;92.10
47382;DHT22;33128;51.580;5.170;2023-02-28T18:40:48;12.20;92.20
47382;DHT22;33128;51.580;5.170;2023-02-28T18:43:15;12.20;92.50